Nefterudovoz 47m — UFFP — position and weather

sailwx.info

Track history (hours):
 
Tides and Currents Weather Stations Pressure Air Temp Water Temp Dewpoint Dewpoint Depression Visibility Wind Speed Wind Dir Waves Ship Positions

Nefterudovoz 47m

Last reported at 2014-May-13 15:32 UTC. Time now 2014-Jul-25 15:56 UTC.
Position N 44°44' E 035°52'.
Warning: this ship's position is months out of date.

Length 119 m; draft 2.6 m.

Type: Cargo ship. MMSI: 273347800.

Date/timePositionNaut miles runAvg speedWind from/ knotsBaromVisibWave heightAir tempDewpointWater temp
2014-May-13 15:32N 44°44' E 035°52'18 8.0
2014-May-13 13:20N 44°43' E 035°27'22 7.8
2014-May-13 10:33N 44°36' E 034°58'9 8.1
2014-May-13 09:30N 44°31' E 034°48'7 7.7
2014-May-13 08:33N 44°27' E 034°40'7 7.4
2014-May-13 07:33N 44°23' E 034°31'9 7.6
2014-May-13 06:18N 44°17' E 034°20'5 7.3
2014-May-13 05:33N 44°15' E 034°13'269 7.9
2014-May-11 19:33N 41°27' E 029°27'9 8.1
2014-May-11 18:30N 41°21' E 029°19'  
Track history (hours):
 
Tides and Currents Weather Stations Pressure Air Temp Water Temp Dewpoint Dewpoint Depression Visibility Wind Speed Wind Dir Waves Ship Positions

Nefterudovoz 47m

Last reported at 2014-May-13 15:32 UTC. Time now 2014-Jul-25 15:56 UTC.
Position N 44°44' E 035°52'.
Warning: this ship's position is months out of date.

Length 119 m; draft 2.6 m.

Type: Cargo ship. MMSI: 273347800.

Date/timePositionNaut miles runAvg speedWind from/ knotsBaromVisibWave heightAir tempDewpointWater temp
2014-May-13 15:32N 44°44' E 035°52'18 8.0
2014-May-13 13:20N 44°43' E 035°27'22 7.8
2014-May-13 10:33N 44°36' E 034°58'9 8.1
2014-May-13 09:30N 44°31' E 034°48'7 7.7
2014-May-13 08:33N 44°27' E 034°40'7 7.4
2014-May-13 07:33N 44°23' E 034°31'9 7.6
2014-May-13 06:18N 44°17' E 034°20'5 7.3
2014-May-13 05:33N 44°15' E 034°13'269 7.9
2014-May-11 19:33N 41°27' E 029°27'9 8.1
2014-May-11 18:30N 41°21' E 029°19'  

Dump ship's entire track history